Time;durP1;ratioP1;P1;durP2;ratioP2;P2;SDS_P1;SDS_P2;PMS_P1;PMS_P2;Temp;Humidity;BMP_temperature;BMP_pressure;BME280_temperature;BME280_humidity;BME280_pressure;Samples;Min_cycle;Max_cycle;Signal;HPM_P1;HPM_P2
2023/09/11 00:02:31;;;;;;;30.10;19.38;;;20.80;99.90;;;;;;5130777;28;20458;-73
2023/09/11 00:05:18;;;;;;;27.15;17.85;;;20.70;99.90;;;;;;5098448;28;20043;-75
2023/09/11 00:08:04;;;;;;;28.10;19.40;;;20.70;99.90;;;;;;5099349;28;20457;-72
2023/09/11 00:10:50;;;;;;;26.63;20.25;;;20.70;99.90;;;;;;5094807;28;20058;-78
2023/09/11 00:13:36;;;;;;;24.27;16.38;;;20.60;99.90;;;;;;5110276;28;20164;-80
2023/09/11 00:16:22;;;;;;;32.55;20.48;;;20.60;99.90;;;;;;5107550;28;20056;-76
2023/09/11 00:19:09;;;;;;;27.70;18.25;;;20.60;99.90;;;;;;5109295;28;20047;-74
2023/09/11 00:21:55;;;;;;;25.80;19.23;;;20.50;99.90;;;;;;5095108;28;20051;-75
2023/09/11 00:24:41;;;;;;;33.00;18.10;;;20.60;99.90;;;;;;5110508;28;20048;-72
2023/09/11 00:27:27;;;;;;;32.85;18.17;;;20.50;99.90;;;;;;5110837;28;20058;-74
2023/09/11 00:30:13;;;;;;;31.15;16.95;;;20.50;99.90;;;;;;5107784;28;20063;-77
2023/09/11 00:32:59;;;;;;;25.75;18.50;;;20.50;99.90;;;;;;5080415;28;20189;-73
2023/09/11 00:35:45;;;;;;;30.45;17.33;;;20.50;99.90;;;;;;5109836;28;20407;-74
2023/09/11 00:38:31;;;;;;;26.50;16.73;;;20.50;99.90;;;;;;5113306;28;20108;-73
2023/09/11 00:41:17;;;;;;;26.58;16.27;;;20.50;99.90;;;;;;5113237;28;20051;-76
2023/09/11 00:44:04;;;;;;;34.45;17.55;;;20.50;99.90;;;;;;5113210;28;20419;-75
2023/09/11 00:46:50;;;;;;;27.90;15.55;;;20.50;99.90;;;;;;5111930;28;20052;-71
2023/09/11 00:49:37;;;;;;;25.73;16.05;;;20.50;99.90;;;;;;5112789;28;20047;-75
2023/09/11 00:52:23;;;;;;;31.33;17.63;;;20.50;99.90;;;;;;5113210;28;20043;-75
2023/09/11 00:55:10;;;;;;;24.08;17.55;;;20.50;99.90;;;;;;5111871;28;20526;-73
2023/09/11 00:57:56;;;;;;;28.80;17.17;;;20.50;99.90;;;;;;5113565;28;20087;-73
2023/09/11 01:00:47;;;;;;;27.23;16.95;;;20.60;99.90;;;;;;5112506;28;20113;-71
2023/09/11 01:03:33;;;;;;;27.50;17.02;;;20.50;99.90;;;;;;5111879;28;20051;-71
2023/09/11 01:06:21;;;;;;;30.08;16.50;;;20.50;99.90;;;;;;5111654;28;20491;-79
2023/09/11 01:09:07;;;;;;;26.65;17.33;;;20.50;99.90;;;;;;5114651;27;20086;-77
2023/09/11 01:11:53;;;;;;;26.63;16.77;;;20.50;99.90;;;;;;5132739;27;20043;-75
2023/09/11 01:14:39;;;;;;;27.38;16.33;;;20.50;99.90;;;;;;5102749;27;20073;-74
2023/09/11 01:18:02;;;;;;;32.55;16.05;;;20.50;99.90;;;;;;5134964;27;20103;-86
2023/09/11 01:21:10;;;;;;;29.33;16.80;;;20.50;99.90;;;;;;5133556;27;20047;-85
2023/09/11 01:24:27;;;;;;;25.80;17.02;;;20.50;99.90;;;;;;5102072;27;20548;-85
2023/09/11 01:27:31;;;;;;;29.90;16.90;;;20.50;99.90;;;;;;5115336;27;20043;-87
2023/09/11 01:30:20;;;;;;;27.25;15.95;;;20.50;99.90;;;;;;5114813;27;20058;-84
2023/09/11 01:33:07;;;;;;;31.52;18.17;;;20.40;99.90;;;;;;5133318;27;20410;-84
2023/09/11 01:35:53;;;;;;;34.38;17.55;;;20.40;99.90;;;;;;5134207;27;20078;-82
2023/09/11 01:38:39;;;;;;;37.10;17.38;;;20.40;99.90;;;;;;5134203;27;20046;-79
2023/09/11 01:41:44;;;;;;;31.52;16.70;;;20.40;99.90;;;;;;5115063;27;20051;-81
2023/09/11 01:44:52;;;;;;;33.88;18.40;;;20.40;99.90;;;;;;5133053;27;20402;-72
2023/09/11 01:47:39;;;;;;;29.50;17.10;;;20.30;99.90;;;;;;5132757;27;20122;-72
2023/09/11 01:50:27;;;;;;;27.25;17.02;;;20.30;99.90;;;;;;5115927;27;20051;-78
2023/09/11 01:53:13;;;;;;;27.58;17.92;;;20.30;99.90;;;;;;5115901;27;20098;-72
2023/09/11 01:56:00;;;;;;;30.98;17.38;;;20.30;99.90;;;;;;5131827;27;20055;-74
2023/09/11 01:58:46;;;;;;;24.63;16.90;;;20.30;99.90;;;;;;5114840;27;20195;-73
2023/09/11 02:01:32;;;;;;;25.70;17.52;;;20.30;99.90;;;;;;5133761;27;20160;-75
2023/09/11 02:04:18;;;;;;;30.60;16.45;;;20.30;99.90;;;;;;5133552;27;20055;-72
2023/09/11 02:07:04;;;;;;;27.67;16.10;;;20.20;99.90;;;;;;5114768;27;20051;-71
2023/09/11 02:09:50;;;;;;;37.17;17.05;;;20.20;99.90;;;;;;5096730;28;20555;-75
2023/09/11 02:12:36;;;;;;;29.98;15.35;;;20.20;99.90;;;;;;5112452;28;20048;-78
2023/09/11 02:15:22;;;;;;;30.05;17.55;;;20.20;99.90;;;;;;5110467;28;20407;-71
2023/09/11 02:18:09;;;;;;;27.25;17.00;;;20.20;99.90;;;;;;5111291;28;20058;-74
2023/09/11 02:20:55;;;;;;;28.05;16.40;;;20.20;99.90;;;;;;5111845;28;20055;-74
2023/09/11 02:23:41;;;;;;;31.20;18.13;;;20.20;99.90;;;;;;5110571;28;20055;-74
2023/09/11 02:26:28;;;;;;;27.80;17.83;;;20.10;99.90;;;;;;5111419;28;20090;-75
2023/09/11 02:29:14;;;;;;;29.27;17.25;;;20.10;99.90;;;;;;5111041;28;20087;-75
2023/09/11 02:32:00;;;;;;;27.50;18.17;;;20.10;99.90;;;;;;5110236;28;20055;-75
2023/09/11 02:34:46;;;;;;;34.72;18.00;;;20.10;99.90;;;;;;5110408;28;20063;-77
2023/09/11 02:37:33;;;;;;;30.02;18.15;;;20.00;99.90;;;;;;5110157;28;20054;-76
2023/09/11 02:40:18;;;;;;;33.25;18.23;;;20.00;99.90;;;;;;5109874;28;20506;-76
2023/09/11 02:43:05;;;;;;;30.67;17.58;;;20.00;99.90;;;;;;5112297;28;20099;-72
2023/09/11 02:45:51;;;;;;;35.33;17.92;;;19.90;99.90;;;;;;5109781;28;20079;-73
2023/09/11 02:48:43;;;;;;;32.30;17.45;;;19.90;99.90;;;;;;5110927;28;20255;-72
2023/09/11 02:51:30;;;;;;;31.88;20.17;;;19.80;99.90;;;;;;5109558;28;20059;-78
2023/09/11 02:54:16;;;;;;;30.90;18.05;;;19.80;99.90;;;;;;5109113;28;20044;-74
2023/09/11 02:57:03;;;;;;;33.72;18.05;;;19.80;99.90;;;;;;5107991;28;20419;-75
2023/09/11 02:59:54;;;;;;;31.77;18.45;;;19.80;99.90;;;;;;5111183;28;20124;-77
2023/09/11 03:02:40;;;;;;;37.10;18.75;;;19.70;99.90;;;;;;5110439;28;20501;-71
2023/09/11 03:05:26;;;;;;;26.58;18.05;;;19.70;99.90;;;;;;5108881;28;20649;-73
2023/09/11 03:08:12;;;;;;;31.27;19.52;;;19.70;99.90;;;;;;5108122;28;20062;-71
2023/09/11 03:11:09;;;;;;;30.77;19.13;;;19.70;99.90;;;;;;5081305;28;20131;-80
2023/09/11 03:13:55;;;;;;;25.10;16.35;;;19.70;99.90;;;;;;5110751;28;20073;-74
2023/09/11 03:16:44;;;;;;;30.90;18.27;;;19.60;99.90;;;;;;5108000;28;20087;-77
2023/09/11 03:19:33;;;;;;;27.70;17.55;;;19.70;99.90;;;;;;5110754;28;20192;-83
2023/09/11 03:22:19;;;;;;;33.90;18.90;;;19.70;99.90;;;;;;5110664;28;20048;-82
2023/09/11 03:25:06;;;;;;;32.85;19.00;;;19.70;99.90;;;;;;5108199;28;20047;-79
2023/09/11 03:27:53;;;;;;;30.30;19.27;;;19.70;99.90;;;;;;5108575;28;20134;-78
2023/09/11 03:30:39;;;;;;;27.98;17.20;;;19.70;99.90;;;;;;5114552;28;20044;-77
2023/09/11 03:33:25;;;;;;;27.55;18.17;;;19.70;99.90;;;;;;5114205;28;20048;-83
2023/09/11 03:36:18;;;;;;;28.52;17.58;;;19.70;99.90;;;;;;5112488;28;20052;-72
2023/09/11 03:39:04;;;;;;;28.33;18.65;;;19.70;99.90;;;;;;5113143;28;20043;-72
2023/09/11 03:41:51;;;;;;;37.10;19.05;;;19.70;99.90;;;;;;5112484;28;20040;-79
2023/09/11 03:44:37;;;;;;;31.45;19.58;;;19.70;99.90;;;;;;5109343;28;20508;-78
2023/09/11 03:47:23;;;;;;;32.47;17.45;;;19.70;99.90;;;;;;5110473;28;20047;-80
2023/09/11 03:50:09;;;;;;;31.02;17.40;;;19.70;99.90;;;;;;5110269;28;20055;-81
2023/09/11 03:52:55;;;;;;;37.70;18.00;;;19.60;99.90;;;;;;5110529;28;20127;-75
2023/09/11 03:55:41;;;;;;;34.78;17.35;;;19.60;99.90;;;;;;5110586;28;20051;-73
2023/09/11 03:58:27;;;;;;;32.20;18.98;;;19.60;99.90;;;;;;5111093;28;20051;-73
2023/09/11 04:01:13;;;;;;;32.10;19.67;;;19.60;99.90;;;;;;5111119;28;20051;-74
2023/09/11 04:03:59;;;;;;;30.30;18.58;;;19.60;99.90;;;;;;5111552;28;20075;-78
2023/09/11 04:06:45;;;;;;;41.08;19.80;;;19.60;99.90;;;;;;5111144;28;20040;-74
2023/09/11 04:09:32;;;;;;;35.33;18.65;;;19.60;99.90;;;;;;5116962;28;20051;-71
2023/09/11 04:12:18;;;;;;;33.10;20.45;;;19.50;99.90;;;;;;5133950;27;20554;-75
2023/09/11 04:15:05;;;;;;;32.90;18.50;;;19.50;99.90;;;;;;5136144;27;20109;-72
2023/09/11 04:17:54;;;;;;;46.28;19.00;;;19.50;99.90;;;;;;5115240;27;20726;-72
2023/09/11 04:20:40;;;;;;;32.90;17.70;;;19.50;99.90;;;;;;5135027;27;20047;-71
2023/09/11 04:23:26;;;;;;;29.52;17.95;;;19.50;99.90;;;;;;5135467;27;20051;-80
2023/09/11 04:26:12;;;;;;;35.53;19.55;;;19.50;99.90;;;;;;5136009;27;20437;-72
2023/09/11 04:28:58;;;;;;;30.90;18.98;;;19.40;99.90;;;;;;5119623;27;20053;-72
2023/09/11 04:31:44;;;;;;;33.47;18.15;;;19.40;99.90;;;;;;5134337;27;20077;-77
2023/09/11 04:34:30;;;;;;;30.33;19.08;;;19.40;99.90;;;;;;5135921;27;20069;-76
2023/09/11 04:37:17;;;;;;;35.70;18.45;;;19.40;99.90;;;;;;5134065;27;20133;-78
2023/09/11 04:40:06;;;;;;;37.35;18.52;;;19.40;99.90;;;;;;5134664;27;20054;-75
2023/09/11 04:42:52;;;;;;;33.35;17.80;;;19.40;99.90;;;;;;5114648;27;20051;-81
2023/09/11 04:45:39;;;;;;;36.50;18.77;;;19.40;99.90;;;;;;5134636;27;20413;-81
2023/09/11 04:48:25;;;;;;;32.03;17.80;;;19.40;99.90;;;;;;5133561;27;20049;-74
2023/09/11 04:51:11;;;;;;;32.97;18.88;;;19.40;99.90;;;;;;5116727;27;20135;-73
2023/09/11 04:53:57;;;;;;;34.35;17.67;;;19.40;99.90;;;;;;5133564;27;20580;-78
2023/09/11 04:56:43;;;;;;;31.60;18.10;;;19.40;99.90;;;;;;5133489;27;20556;-73
2023/09/11 04:59:29;;;;;;;39.58;19.48;;;19.50;99.90;;;;;;5133191;27;20137;-71
2023/09/11 05:02:15;;;;;;;36.80;18.48;;;19.50;99.90;;;;;;5134237;27;20058;-72
2023/09/11 05:05:03;;;;;;;31.00;18.27;;;19.50;99.90;;;;;;5135813;27;20124;-73
2023/09/11 05:07:49;;;;;;;28.25;17.77;;;19.50;99.90;;;;;;5139022;27;20051;-82
2023/09/11 05:10:43;;;;;;;36.45;18.23;;;19.60;99.90;;;;;;5136876;27;20055;-73
2023/09/11 05:13:29;;;;;;;28.70;17.45;;;19.60;99.90;;;;;;5134824;27;20054;-75
2023/09/11 05:16:17;;;;;;;30.20;16.92;;;19.60;99.90;;;;;;5134749;27;20051;-75
2023/09/11 05:19:03;;;;;;;32.13;16.35;;;19.60;99.90;;;;;;5132683;27;20051;-84
2023/09/11 05:21:49;;;;;;;26.45;17.33;;;19.70;99.90;;;;;;5115256;27;20487;-74
2023/09/11 05:24:35;;;;;;;34.53;16.08;;;19.60;99.90;;;;;;5114862;27;20051;-83
2023/09/11 05:27:21;;;;;;;29.63;16.77;;;19.70;99.90;;;;;;5132631;27;20888;-73
2023/09/11 05:30:08;;;;;;;46.47;18.10;;;19.70;99.90;;;;;;5132780;27;20047;-70
2023/09/11 05:32:54;;;;;;;34.17;17.55;;;19.70;99.90;;;;;;5133865;27;20503;-72
2023/09/11 05:35:40;;;;;;;27.67;15.95;;;19.70;99.90;;;;;;5134964;27;20510;-72
2023/09/11 05:38:26;;;;;;;30.60;16.98;;;19.70;99.90;;;;;;5134007;27;20542;-79
2023/09/11 05:41:12;;;;;;;35.30;18.58;;;19.70;99.90;;;;;;5134004;27;20089;-74
2023/09/11 05:43:58;;;;;;;28.88;16.67;;;19.70;99.90;;;;;;5133674;27;20054;-74
2023/09/11 05:46:45;;;;;;;28.90;16.30;;;19.70;99.90;;;;;;5133011;27;20086;-76
2023/09/11 05:49:31;;;;;;;38.20;16.85;;;19.80;99.90;;;;;;5133423;27;20043;-79
2023/09/11 05:52:17;;;;;;;32.50;15.85;;;19.80;99.90;;;;;;5133705;27;20092;-75
2023/09/11 05:55:03;;;;;;;32.22;16.05;;;19.90;99.90;;;;;;5132546;27;20191;-81
2023/09/11 05:57:49;;;;;;;34.70;16.38;;;19.90;99.90;;;;;;5132617;27;20054;-79
2023/09/11 06:00:35;;;;;;;30.55;17.88;;;19.90;99.90;;;;;;5133685;27;20463;-73
2023/09/11 06:03:21;;;;;;;30.42;17.70;;;20.00;99.90;;;;;;5132091;27;20078;-75
2023/09/11 06:06:08;;;;;;;25.35;16.33;;;20.10;99.90;;;;;;5132058;27;20047;-79
2023/09/11 06:08:55;;;;;;;28.58;16.65;;;20.10;99.90;;;;;;5132990;27;20040;-79
2023/09/11 06:11:41;;;;;;;26.63;15.77;;;20.10;99.90;;;;;;5132031;27;20051;-72
2023/09/11 06:14:27;;;;;;;28.15;16.67;;;20.20;99.90;;;;;;5133310;27;20115;-70
2023/09/11 06:17:13;;;;;;;29.35;15.95;;;20.30;99.90;;;;;;5133234;27;20115;-72
2023/09/11 06:19:59;;;;;;;26.25;15.85;;;20.30;99.90;;;;;;5132640;27;20502;-73
2023/09/11 06:22:45;;;;;;;29.80;15.95;;;20.40;99.90;;;;;;5132044;27;20403;-73
2023/09/11 06:25:31;;;;;;;30.20;15.48;;;20.50;99.90;;;;;;5114686;27;20062;-76
2023/09/11 06:28:17;;;;;;;31.67;16.05;;;20.60;99.90;;;;;;5117937;27;20055;-73
2023/09/11 06:31:04;;;;;;;29.02;15.23;;;20.70;99.90;;;;;;5132482;27;20055;-71
2023/09/11 06:33:50;;;;;;;26.30;15.85;;;20.70;99.90;;;;;;5131301;27;20047;-75
2023/09/11 06:36:36;;;;;;;29.23;14.57;;;20.90;99.90;;;;;;5132920;27;20053;-73
2023/09/11 06:39:22;;;;;;;25.75;14.60;;;21.00;99.90;;;;;;5132780;27;20051;-71
2023/09/11 06:42:08;;;;;;;26.50;16.75;;;21.10;99.90;;;;;;5131570;27;20461;-80
2023/09/11 06:44:54;;;;;;;27.42;15.90;;;21.20;99.90;;;;;;5132813;27;20039;-71
2023/09/11 06:47:41;;;;;;;35.72;16.10;;;21.30;99.90;;;;;;5130825;27;20049;-77
2023/09/11 06:50:27;;;;;;;33.10;16.10;;;21.50;99.90;;;;;;5132139;27;20047;-73
2023/09/11 06:53:13;;;;;;;28.52;15.57;;;21.50;99.90;;;;;;5131389;27;20055;-82
2023/09/11 06:55:59;;;;;;;25.75;15.63;;;21.70;99.90;;;;;;5131994;27;20058;-76
2023/09/11 06:58:45;;;;;;;30.50;15.25;;;21.80;99.90;;;;;;5131434;27;20403;-86
2023/09/11 07:01:38;;;;;;;25.58;14.95;;;21.90;99.90;;;;;;5132642;27;20043;-83
2023/09/11 07:04:24;;;;;;;30.45;16.45;;;22.00;99.90;;;;;;5134773;27;20043;-85
2023/09/11 07:07:10;;;;;;;33.90;15.88;;;22.20;99.90;;;;;;5131804;27;20093;-85
2023/09/11 07:09:57;;;;;;;26.75;15.82;;;22.30;99.90;;;;;;5099272;27;20509;-85
2023/09/11 07:12:43;;;;;;;25.92;15.27;;;22.50;99.90;;;;;;5113462;28;20062;-87
2023/09/11 07:15:29;;;;;;;26.20;15.27;;;22.60;99.90;;;;;;5131578;27;20119;-83
2023/09/11 07:18:15;;;;;;;31.38;15.55;;;22.80;99.90;;;;;;5130667;27;20043;-85
2023/09/11 07:21:01;;;;;;;26.60;15.00;;;23.00;99.90;;;;;;5131040;27;20073;-71
2023/09/11 07:23:47;;;;;;;25.02;14.57;;;23.10;99.90;;;;;;5132203;27;20051;-82
2023/09/11 07:26:33;;;;;;;27.45;16.13;;;23.20;99.90;;;;;;5131151;27;20047;-81
2023/09/11 07:29:24;;;;;;;31.90;14.65;;;23.20;99.90;;;;;;5131030;27;20478;-73
2023/09/11 07:32:10;;;;;;;25.95;15.45;;;23.20;99.90;;;;;;5131989;27;20050;-73
2023/09/11 07:34:57;;;;;;;27.95;14.40;;;23.20;99.90;;;;;;5132422;28;20116;-77
2023/09/11 07:37:43;;;;;;;29.40;15.18;;;23.40;99.90;;;;;;5132018;28;20084;-77
2023/09/11 07:40:29;;;;;;;22.83;16.02;;;23.40;99.90;;;;;;5130684;28;20101;-81
2023/09/11 07:43:16;;;;;;;21.63;14.50;;;23.60;99.90;;;;;;5130982;28;20054;-72
2023/09/11 07:46:03;;;;;;;24.40;13.40;;;23.70;99.90;;;;;;5132557;27;20092;-83
2023/09/11 07:48:49;;;;;;;25.85;14.18;;;23.70;99.90;;;;;;5137013;27;20059;-79
2023/09/11 07:51:35;;;;;;;23.48;14.88;;;23.80;99.90;;;;;;5118038;27;20062;-85
2023/09/11 07:54:22;;;;;;;26.05;15.00;;;23.80;99.90;;;;;;5135773;27;20086;-83
2023/09/11 07:57:08;;;;;;;20.05;12.77;;;23.80;99.90;;;;;;5136475;27;20150;-80
2023/09/11 07:59:54;;;;;;;30.50;15.32;;;24.00;99.90;;;;;;5136742;27;20092;-86
2023/09/11 08:02:40;;;;;;;24.65;13.13;;;24.10;99.90;;;;;;5117557;27;20047;-84
2023/09/11 08:05:26;;;;;;;23.15;13.82;;;24.30;99.90;;;;;;5134954;27;20050;-82
2023/09/11 08:08:12;;;;;;;23.25;14.25;;;24.40;99.90;;;;;;5116973;27;20161;-83
2023/09/11 08:10:59;;;;;;;22.48;13.00;;;24.60;99.90;;;;;;5116377;27;20055;-71
2023/09/11 08:13:46;;;;;;;32.03;13.93;;;24.70;99.90;;;;;;5134341;27;20047;-75
2023/09/11 08:16:32;;;;;;;26.35;13.15;;;24.80;99.90;;;;;;5134808;27;20072;-76
2023/09/11 08:19:18;;;;;;;22.00;12.38;;;25.00;99.90;;;;;;5134718;27;20058;-76
2023/09/11 08:22:04;;;;;;;27.02;12.75;;;25.20;99.90;;;;;;5135047;27;20490;-76
2023/09/11 08:24:51;;;;;;;22.60;12.68;;;25.30;99.90;;;;;;5134421;27;20046;-74
2023/09/11 08:27:37;;;;;;;30.13;12.50;;;25.50;99.90;;;;;;5134938;27;20051;-77
2023/09/11 08:30:23;;;;;;;21.90;11.65;;;25.60;99.90;;;;;;5133196;27;20569;-74
2023/09/11 08:33:09;;;;;;;17.92;11.90;;;25.70;99.90;;;;;;5134555;27;20501;-80
2023/09/11 08:35:55;;;;;;;18.05;11.70;;;25.90;99.90;;;;;;5116653;27;20403;-78
2023/09/11 08:38:44;;;;;;;23.17;11.07;;;25.90;99.90;;;;;;5134807;27;20047;-85
2023/09/11 08:41:31;;;;;;;21.23;11.50;;;26.10;99.90;;;;;;5134660;27;20043;-84
2023/09/11 08:44:17;;;;;;;21.52;11.25;;;26.20;99.90;;;;;;5116280;27;20463;-77
2023/09/11 08:47:06;;;;;;;21.50;11.23;;;26.30;99.90;;;;;;5133989;27;20059;-76
2023/09/11 08:49:55;;;;;;;24.90;11.90;;;26.40;99.90;;;;;;5134341;27;20043;-78
2023/09/11 08:52:41;;;;;;;21.60;11.73;;;26.50;99.90;;;;;;5115018;27;20558;-81
2023/09/11 08:55:33;;;;;;;22.45;11.80;;;26.60;99.90;;;;;;5116535;27;20043;-81
2023/09/11 08:58:21;;;;;;;15.52;9.77;;;26.70;99.90;;;;;;5132288;27;20436;-72
2023/09/11 09:01:08;;;;;;;23.00;12.18;;;26.70;99.90;;;;;;5134484;27;20618;-74
2023/09/11 09:03:56;;;;;;;18.27;11.27;;;26.90;99.90;;;;;;5133520;27;20118;-74
2023/09/11 09:06:45;;;;;;;19.98;11.38;;;26.80;99.90;;;;;;5133388;27;20562;-71
2023/09/11 09:09:32;;;;;;;16.88;11.48;;;26.90;99.90;;;;;;5133282;27;20058;-77
2023/09/11 09:12:18;;;;;;;18.42;11.30;;;27.10;99.90;;;;;;5133506;27;20062;-82
2023/09/11 09:15:05;;;;;;;16.95;11.60;;;27.30;99.90;;;;;;5134298;27;20070;-73
2023/09/11 09:17:51;;;;;;;20.85;12.32;;;27.30;99.90;;;;;;5133514;27;20130;-73
2023/09/11 09:20:38;;;;;;;24.38;13.88;;;27.50;99.90;;;;;;5133156;27;20051;-75
2023/09/11 09:23:32;;;;;;;16.83;12.55;;;27.50;99.90;;;;;;5134898;27;20051;-73
2023/09/11 09:26:18;;;;;;;23.03;12.23;;;27.60;99.90;;;;;;5134702;27;20057;-75
2023/09/11 09:29:10;;;;;;;20.25;13.45;;;27.80;99.90;;;;;;5114787;27;20362;-72
2023/09/11 09:32:00;;;;;;;23.00;12.85;;;27.90;99.90;;;;;;5133819;27;20043;-73
2023/09/11 09:34:54;;;;;;;21.73;13.82;;;28.00;99.90;;;;;;5133748;27;20035;-75
2023/09/11 09:37:47;;;;;;;24.30;14.57;;;28.00;99.90;;;;;;5133586;27;20414;-76
2023/09/11 09:40:35;;;;;;;23.63;14.10;;;28.00;99.90;;;;;;5132204;27;20047;-77
2023/09/11 09:43:21;;;;;;;21.10;13.73;;;28.10;99.90;;;;;;5133676;27;20558;-85
2023/09/11 09:46:18;;;;;;;19.65;14.25;;;28.10;99.90;;;;;;5114516;27;20051;-78
2023/09/11 09:49:09;;;;;;;23.75;12.88;;;28.20;99.90;;;;;;5114332;27;20054;-80
2023/09/11 09:51:58;;;;;;;21.10;13.70;;;28.40;99.90;;;;;;5115235;27;20129;-74
2023/09/11 09:54:49;;;;;;;22.33;15.55;;;28.60;99.90;;;;;;5132827;27;20398;-72
2023/09/11 09:57:35;;;;;;;23.88;15.32;;;28.70;99.90;;;;;;5133396;27;20368;-73
2023/09/11 10:00:22;;;;;;;23.48;14.45;;;28.80;99.90;;;;;;5132896;27;20384;-87
2023/09/11 10:03:11;;;;;;;23.52;15.35;;;29.00;99.90;;;;;;5133653;27;20051;-79
2023/09/11 10:05:57;;;;;;;24.02;15.35;;;29.10;99.90;;;;;;5133598;27;20055;-74
2023/09/11 10:08:44;;;;;;;22.00;15.43;;;29.20;99.90;;;;;;5117672;27;20420;-73
2023/09/11 10:11:31;;;;;;;18.45;15.80;;;29.10;99.80;;;;;;5113655;27;20200;-76
2023/09/11 10:14:18;;;;;;;20.27;14.02;;;28.90;99.70;;;;;;5133377;27;20082;-87
2023/09/11 10:17:05;;;;;;;22.83;15.23;;;28.60;99.60;;;;;;5133252;27;20112;-72
2023/09/11 10:19:53;;;;;;;20.27;13.57;;;28.40;99.90;;;;;;5132530;27;20051;-78
2023/09/11 10:22:39;;;;;;;20.80;15.05;;;28.70;99.90;;;;;;5132054;27;20199;-78
2023/09/11 10:25:29;;;;;;;19.77;14.00;;;28.90;99.90;;;;;;5114108;27;20051;-74
2023/09/11 10:28:31;;;;;;;20.98;14.32;;;29.10;99.90;;;;;;5132497;27;20130;-73
2023/09/11 10:31:24;;;;;;;25.73;15.85;;;29.40;99.90;;;;;;5131985;27;20456;-83
2023/09/11 10:34:11;;;;;;;25.48;16.70;;;29.40;99.60;;;;;;5132466;27;20372;-73
2023/09/11 10:37:00;;;;;;;24.05;15.80;;;29.40;99.40;;;;;;5099006;27;20042;-79
2023/09/11 10:39:49;;;;;;;19.55;13.80;;;29.60;98.90;;;;;;5131998;27;20047;-73
2023/09/11 10:42:35;;;;;;;27.90;17.45;;;29.60;99.40;;;;;;5131835;27;20035;-78
2023/09/11 10:45:26;;;;;;;22.75;18.35;;;29.70;99.20;;;;;;5131851;27;20054;-74
2023/09/11 10:48:28;;;;;;;21.75;15.50;;;30.20;98.60;;;;;;5132218;27;20055;-74
2023/09/11 10:51:15;;;;;;;26.42;15.55;;;30.30;97.90;;;;;;5131614;27;20050;-78
2023/09/11 10:54:01;;;;;;;25.23;14.52;;;30.30;98.50;;;;;;5131977;27;20127;-87
2023/09/11 10:56:50;;;;;;;18.40;10.27;;;30.60;98.10;;;;;;5113790;27;20085;-79
2023/09/11 10:59:36;;;;;;;14.82;9.48;;;30.70;96.40;;;;;;5118215;27;20096;-77
2023/09/11 11:02:22;;;;;;;16.75;9.05;;;30.60;95.80;;;;;;5113870;27;20517;-83
2023/09/11 11:05:15;;;;;;;13.57;9.15;;;31.10;96.30;;;;;;5131736;27;20141;-74
2023/09/11 11:08:01;;;;;;;12.93;6.38;;;31.00;95.20;;;;;;5131025;27;20123;-75
2023/09/11 11:10:53;;;;;;;9.18;4.70;;;31.50;94.80;;;;;;5113103;27;20082;-77
2023/09/11 11:14:11;;;;;;;13.77;5.63;;;31.50;93.80;;;;;;5131215;27;20035;-78
2023/09/11 11:17:10;;;;;;;14.95;8.82;;;32.00;94.80;;;;;;5131188;27;20464;-73
2023/09/11 11:20:00;;;;;;;14.68;8.23;;;32.30;94.70;;;;;;5131760;27;20047;-75
2023/09/11 11:22:46;;;;;;;12.48;6.35;;;32.70;94.60;;;;;;5131096;27;20765;-76
2023/09/11 11:25:33;;;;;;;11.38;5.70;;;32.90;93.50;;;;;;5131374;27;20054;-78
2023/09/11 11:28:22;;;;;;;13.50;7.55;;;33.10;93.10;;;;;;5130711;27;20058;-79
2023/09/11 11:31:10;;;;;;;13.38;6.78;;;32.90;92.70;;;;;;5131610;27;20051;-79
2023/09/11 11:33:59;;;;;;;12.48;7.18;;;33.00;93.00;;;;;;5130745;27;20051;-76
2023/09/11 11:36:45;;;;;;;15.35;6.20;;;33.30;92.80;;;;;;5113425;28;20600;-74
2023/09/11 11:39:37;;;;;;;12.18;5.85;;;33.40;92.60;;;;;;5131087;28;20765;-74
2023/09/11 11:42:23;;;;;;;13.27;4.82;;;33.60;91.80;;;;;;5131819;28;20051;-82
2023/09/11 11:45:10;;;;;;;8.95;5.30;;;33.70;92.00;;;;;;5112929;28;20055;-76
2023/09/11 11:47:57;;;;;;;10.30;4.18;;;33.50;91.10;;;;;;5113068;28;20128;-74
2023/09/11 11:50:44;;;;;;;9.52;5.22;;;33.60;90.60;;;;;;5131725;28;20100;-78
2023/09/11 11:53:32;;;;;;;7.03;4.18;;;33.60;89.90;;;;;;5114210;28;20058;-84
2023/09/11 11:56:19;;;;;;;7.43;4.18;;;33.50;89.20;;;;;;5132715;28;20054;-83
2023/09/11 11:59:05;;;;;;;8.68;3.75;;;34.10;88.80;;;;;;5130898;28;20058;-88
2023/09/11 12:01:51;;;;;;;7.68;3.55;;;34.20;87.80;;;;;;5131532;28;20043;-88
2023/09/11 12:04:42;;;;;;;7.78;3.78;;;34.40;86.90;;;;;;5117346;28;20043;-80
2023/09/11 12:07:28;;;;;;;7.95;3.53;;;34.80;86.10;;;;;;5131457;28;20051;-86
2023/09/11 12:10:14;;;;;;;6.40;3.28;;;34.90;85.90;;;;;;5131063;28;20134;-83
2023/09/11 12:13:01;;;;;;;6.97;3.60;;;35.40;84.90;;;;;;5112720;28;20058;-83
2023/09/11 12:15:58;;;;;;;7.78;3.42;;;35.60;85.30;;;;;;5116010;28;20535;-76
2023/09/11 12:18:46;;;;;;;9.82;4.68;;;35.60;84.60;;;;;;5130660;28;20043;-85
2023/09/11 12:21:32;;;;;;;11.13;5.28;;;36.00;85.20;;;;;;5130839;28;20047;-86
2023/09/11 12:24:18;;;;;;;10.98;5.82;;;35.90;84.20;;;;;;5115857;28;20054;-83
2023/09/11 12:27:07;;;;;;;9.43;5.93;;;36.00;84.30;;;;;;5131200;28;20047;-79
2023/09/11 12:29:57;;;;;;;12.90;4.90;;;36.20;84.30;;;;;;5130279;28;20051;-86
2023/09/11 12:32:45;;;;;;;12.18;5.50;;;36.10;84.70;;;;;;5118068;27;20043;-85
2023/09/11 12:35:35;;;;;;;9.38;5.78;;;36.20;85.10;;;;;;5117493;27;20047;-86
2023/09/11 12:38:24;;;;;;;12.10;5.70;;;36.40;83.70;;;;;;5135116;27;20055;-88
2023/09/11 12:41:10;;;;;;;11.98;8.00;;;36.40;84.10;;;;;;5134659;27;20055;-73
2023/09/11 12:43:59;;;;;;;21.15;9.93;;;36.90;83.00;;;;;;5134679;27;20046;-82
2023/09/11 12:46:45;;;;;;;14.65;9.27;;;36.90;82.70;;;;;;5116541;27;20063;-78
2023/09/11 12:49:31;;;;;;;13.15;7.72;;;37.20;82.50;;;;;;5116734;27;20039;-78
2023/09/11 12:52:22;;;;;;;14.77;9.13;;;37.50;82.40;;;;;;5116206;27;20054;-77
2023/09/11 12:55:13;;;;;;;12.50;8.38;;;37.70;81.20;;;;;;5115301;27;20207;-76
2023/09/11 12:58:02;;;;;;;14.20;8.45;;;37.70;80.90;;;;;;5134156;27;20043;-84
2023/09/11 13:00:48;;;;;;;13.18;7.82;;;37.90;80.60;;;;;;5134465;27;20048;-84
2023/09/11 13:03:34;;;;;;;15.07;8.82;;;38.40;79.90;;;;;;5134207;27;20498;-80
2023/09/11 13:06:21;;;;;;;10.88;8.35;;;38.30;78.90;;;;;;5133946;27;20058;-85
2023/09/11 13:09:08;;;;;;;14.85;7.78;;;38.60;78.00;;;;;;5101742;27;20079;-84
2023/09/11 13:11:54;;;;;;;11.15;7.93;;;38.90;77.10;;;;;;5117384;27;20043;-82
2023/09/11 13:14:40;;;;;;;13.70;7.03;;;39.00;76.20;;;;;;5115933;27;20047;-79
2023/09/11 13:17:26;;;;;;;10.32;6.55;;;38.80;76.00;;;;;;5134364;27;20115;-78
2023/09/11 13:20:12;;;;;;;12.10;6.60;;;39.30;75.70;;;;;;5115236;27;20134;-73
2023/09/11 13:22:58;;;;;;;11.77;7.57;;;39.40;74.90;;;;;;5115337;27;20063;-84
2023/09/11 13:25:44;;;;;;;12.15;8.02;;;39.50;73.70;;;;;;5133564;27;20047;-75
2023/09/11 13:28:30;;;;;;;14.05;8.27;;;39.50;73.40;;;;;;5115512;27;20043;-79
2023/09/11 13:31:16;;;;;;;11.88;6.93;;;39.40;73.70;;;;;;5133185;27;20082;-75
2023/09/11 13:34:03;;;;;;;12.40;6.50;;;39.60;73.60;;;;;;5133082;27;20118;-73
2023/09/11 13:36:53;;;;;;;11.18;5.68;;;39.10;73.00;;;;;;5118890;27;20058;-88
2023/09/11 13:39:42;;;;;;;12.40;5.05;;;38.90;71.50;;;;;;5133042;27;20043;-72
2023/09/11 13:42:28;;;;;;;11.32;7.13;;;39.30;72.00;;;;;;5132900;27;20051;-80
2023/09/11 13:45:15;;;;;;;11.43;7.30;;;39.40;70.50;;;;;;5117833;27;20065;-87
2023/09/11 13:48:01;;;;;;;12.70;7.82;;;38.90;71.80;;;;;;5114487;27;20070;-80
2023/09/11 13:50:47;;;;;;;11.07;7.20;;;38.80;73.00;;;;;;5133254;27;20365;-75
2023/09/11 13:53:33;;;;;;;12.95;7.05;;;38.20;73.10;;;;;;5133340;27;20048;-76
2023/09/11 13:56:20;;;;;;;16.75;8.55;;;37.90;73.60;;;;;;5116979;27;20792;-76
2023/09/11 13:59:06;;;;;;;14.13;7.88;;;38.00;73.40;;;;;;5132608;27;20141;-78
2023/09/11 14:01:52;;;;;;;13.10;6.70;;;38.00;74.20;;;;;;5133003;27;20115;-76
2023/09/11 14:04:38;;;;;;;16.10;8.43;;;38.50;73.30;;;;;;5114713;27;20145;-74
2023/09/11 14:07:26;;;;;;;12.45;7.00;;;38.90;72.70;;;;;;5133117;27;20046;-72
2023/09/11 14:10:12;;;;;;;13.50;7.35;;;39.10;72.00;;;;;;5133781;27;20099;-74
2023/09/11 14:12:58;;;;;;;16.08;8.63;;;38.50;70.80;;;;;;5114738;27;20047;-80
2023/09/11 14:15:44;;;;;;;11.10;6.97;;;37.80;72.50;;;;;;5133089;27;20130;-73